Terminal Aerodrome Forecast
Issued by NWS Bismarck, ND

Home | Current Version | Previous Version | Graphics & Text | Print | Product List | Glossary On
Versions: 1 2 3 4 5 6 7 8 9 10 11 12 13 14 15 16 17 18 19 20 21 22 23 24 25 26
000
FTUS43 KBIS 010340 AAB
TAFISN
TAF AMD
KISN 010340Z 0104/0124 10010KT 5SM FU BKN110
     FM010600 08009KT 5SM FU SCT090
     FM011000 36005KT 6SM BR SCT100
     FM011600 35007KT P6SM BKN050=

USA.gov is the U.S. government's official web portal to all federal, state and local government web resources and services.